createdAt,value
2022-11-17T00:19:36.072Z,19.3
2022-11-17T00:39:36.102Z,19.2
2022-11-17T00:59:36.044Z,19.2
2022-11-17T01:19:36.013Z,19.2
2022-11-17T01:39:36.014Z,19.2
2022-11-17T01:59:35.980Z,19.1
2022-11-17T02:19:35.942Z,19.1
2022-11-17T02:39:35.985Z,19.1
2022-11-17T02:59:35.910Z,19.1
2022-11-17T03:19:35.860Z,19.1
2022-11-17T03:39:35.869Z,19.0
2022-11-17T03:59:35.817Z,19.0
2022-11-17T04:19:35.808Z,19.1
2022-11-17T04:39:35.775Z,19.2
2022-11-17T04:59:35.820Z,19.3
2022-11-17T05:19:35.753Z,19.4
2022-11-17T05:39:35.727Z,19.4
2022-11-17T05:59:35.665Z,19.5
2022-11-17T06:19:35.669Z,19.5
2022-11-17T06:39:35.616Z,19.6
2022-11-17T06:59:35.624Z,19.8
2022-11-17T07:19:35.556Z,19.7
2022-11-17T07:39:35.558Z,19.8
2022-11-17T07:59:35.632Z,19.9
2022-11-17T08:19:35.489Z,20.0
2022-11-17T08:39:35.496Z,20.1
2022-11-17T08:59:35.517Z,20.1
2022-11-17T09:19:35.433Z,20.2
2022-11-17T09:39:35.420Z,20.2
2022-11-17T09:59:35.377Z,20.1
2022-11-17T10:19:35.509Z,20.1
2022-11-17T10:39:35.343Z,20.1
2022-11-17T10:59:35.291Z,20.2
2022-11-17T11:19:35.288Z,20.2
2022-11-17T11:39:35.234Z,20.1
2022-11-17T11:59:35.202Z,20.1
2022-11-17T12:19:35.224Z,20.2
2022-11-17T12:39:35.157Z,20.2
2022-11-17T12:59:35.205Z,20.2
2022-11-17T13:19:35.271Z,20.1
2022-11-17T13:39:35.313Z,20.1
2022-11-17T13:59:35.151Z,20.1
2022-11-17T14:19:35.065Z,20.1
2022-11-17T14:39:35.018Z,20.1
2022-11-17T14:59:35.177Z,20.1
2022-11-17T15:19:35.159Z,20.0
2022-11-17T15:39:35.126Z,20.0
2022-11-17T15:59:35.040Z,20.0
2022-11-17T16:19:35.069Z,20.0
2022-11-17T16:39:34.932Z,19.9
2022-11-17T16:59:34.837Z,19.9
2022-11-17T17:19:34.805Z,19.9
2022-11-17T17:39:34.852Z,19.9
2022-11-17T17:59:34.769Z,19.9
2022-11-17T18:19:34.772Z,19.9
2022-11-17T18:39:34.735Z,19.9
2022-11-17T18:59:34.871Z,20.0
2022-11-17T19:19:34.680Z,19.9
2022-11-17T19:39:34.639Z,20.0
2022-11-17T19:59:34.648Z,20.1
2022-11-17T20:19:34.588Z,20.1
2022-11-17T20:39:34.581Z,20.0
2022-11-17T20:59:34.737Z,19.9
2022-11-17T21:19:34.618Z,19.8
2022-11-17T21:39:34.515Z,19.8
2022-11-17T21:59:34.489Z,19.7
2022-11-17T22:19:34.451Z,19.6
2022-11-17T22:39:34.444Z,19.5
2022-11-17T22:59:34.410Z,19.5
2022-11-17T23:19:34.468Z,19.4
2022-11-17T23:39:34.375Z,19.4
2022-11-17T23:59:34.362Z,19.4
